sensor_id;sensor_type;location;lat;lon;timestamp;P1;durP1;ratioP1;P2;durP2;ratioP2
66669;SDS011;53568;52.164;4.472;2022-11-14T00:02:15;21.74;;;21.74;;
66669;SDS011;53568;52.164;4.472;2022-11-14T00:04:44;21.93;;;21.93;;
66669;SDS011;53568;52.164;4.472;2022-11-14T00:07:10;21.41;;;21.41;;
66669;SDS011;53568;52.164;4.472;2022-11-14T00:09:36;21.56;;;21.56;;
66669;SDS011;53568;52.164;4.472;2022-11-14T00:12:03;21.92;;;21.92;;
66669;SDS011;53568;52.164;4.472;2022-11-14T00:14:28;21.19;;;21.19;;
66669;SDS011;53568;52.164;4.472;2022-11-14T00:16:54;21.43;;;21.43;;
66669;SDS011;53568;52.164;4.472;2022-11-14T00:19:20;21.64;;;21.64;;
66669;SDS011;53568;52.164;4.472;2022-11-14T00:21:45;21.46;;;21.46;;
66669;SDS011;53568;52.164;4.472;2022-11-14T00:24:12;21.83;;;21.83;;
66669;SDS011;53568;52.164;4.472;2022-11-14T00:26:38;22.16;;;22.16;;
66669;SDS011;53568;52.164;4.472;2022-11-14T00:29:03;22.17;;;22.17;;
66669;SDS011;53568;52.164;4.472;2022-11-14T00:31:29;22.02;;;22.02;;
66669;SDS011;53568;52.164;4.472;2022-11-14T00:33:54;21.36;;;21.36;;
66669;SDS011;53568;52.164;4.472;2022-11-14T00:36:20;22.22;;;22.15;;
66669;SDS011;53568;52.164;4.472;2022-11-14T00:38:46;21.69;;;21.69;;
66669;SDS011;53568;52.164;4.472;2022-11-14T00:41:11;22.43;;;22.43;;
66669;SDS011;53568;52.164;4.472;2022-11-14T00:43:37;22.35;;;22.35;;
66669;SDS011;53568;52.164;4.472;2022-11-14T00:46:02;22.19;;;22.19;;
66669;SDS011;53568;52.164;4.472;2022-11-14T00:48:29;21.58;;;21.56;;
66669;SDS011;53568;52.164;4.472;2022-11-14T00:50:55;21.61;;;21.61;;
66669;SDS011;53568;52.164;4.472;2022-11-14T00:53:20;22.08;;;22.08;;
66669;SDS011;53568;52.164;4.472;2022-11-14T00:55:46;21.77;;;21.77;;
66669;SDS011;53568;52.164;4.472;2022-11-14T00:58:11;21.77;;;21.77;;
66669;SDS011;53568;52.164;4.472;2022-11-14T01:00:37;21.91;;;21.91;;
66669;SDS011;53568;52.164;4.472;2022-11-14T01:03:03;22.03;;;22.00;;
66669;SDS011;53568;52.164;4.472;2022-11-14T01:05:28;22.08;;;22.08;;
66669;SDS011;53568;52.164;4.472;2022-11-14T01:07:55;22.33;;;22.32;;
66669;SDS011;53568;52.164;4.472;2022-11-14T01:10:21;21.85;;;21.83;;
66669;SDS011;53568;52.164;4.472;2022-11-14T01:12:47;22.24;;;22.18;;
66669;SDS011;53568;52.164;4.472;2022-11-14T01:15:12;22.42;;;22.42;;
66669;SDS011;53568;52.164;4.472;2022-11-14T01:17:38;22.14;;;22.14;;
66669;SDS011;53568;52.164;4.472;2022-11-14T01:20:04;22.41;;;22.41;;
66669;SDS011;53568;52.164;4.472;2022-11-14T01:22:30;22.69;;;22.68;;
66669;SDS011;53568;52.164;4.472;2022-11-14T01:24:56;22.44;;;22.43;;
66669;SDS011;53568;52.164;4.472;2022-11-14T01:27:24;23.36;;;23.35;;
66669;SDS011;53568;52.164;4.472;2022-11-14T01:29:50;22.94;;;22.93;;
66669;SDS011;53568;52.164;4.472;2022-11-14T01:32:17;23.05;;;22.97;;
66669;SDS011;53568;52.164;4.472;2022-11-14T01:34:42;23.34;;;23.30;;
66669;SDS011;53568;52.164;4.472;2022-11-14T01:37:08;23.31;;;23.31;;
66669;SDS011;53568;52.164;4.472;2022-11-14T01:39:33;24.09;;;24.08;;
66669;SDS011;53568;52.164;4.472;2022-11-14T01:41:59;23.85;;;23.80;;
66669;SDS011;53568;52.164;4.472;2022-11-14T01:44:37;23.95;;;23.85;;
66669;SDS011;53568;52.164;4.472;2022-11-14T01:47:12;24.18;;;24.16;;
66669;SDS011;53568;52.164;4.472;2022-11-14T01:49:48;23.93;;;23.90;;
66669;SDS011;53568;52.164;4.472;2022-11-14T01:52:28;24.36;;;24.31;;
66669;SDS011;53568;52.164;4.472;2022-11-14T01:55:00;24.69;;;24.58;;
66669;SDS011;53568;52.164;4.472;2022-11-14T01:57:30;24.54;;;24.52;;
66669;SDS011;53568;52.164;4.472;2022-11-14T02:00:03;24.16;;;24.12;;
66669;SDS011;53568;52.164;4.472;2022-11-14T02:02:31;25.63;;;25.56;;
66669;SDS011;53568;52.164;4.472;2022-11-14T02:04:59;25.65;;;25.43;;
66669;SDS011;53568;52.164;4.472;2022-11-14T02:07:29;24.84;;;24.77;;
66669;SDS011;53568;52.164;4.472;2022-11-14T02:09:58;25.14;;;25.07;;
66669;SDS011;53568;52.164;4.472;2022-11-14T02:12:29;25.95;;;25.86;;
66669;SDS011;53568;52.164;4.472;2022-11-14T02:14:56;26.32;;;26.16;;
66669;SDS011;53568;52.164;4.472;2022-11-14T02:17:23;26.51;;;26.25;;
66669;SDS011;53568;52.164;4.472;2022-11-14T02:19:51;26.59;;;26.56;;
66669;SDS011;53568;52.164;4.472;2022-11-14T02:22:36;26.96;;;26.94;;
66669;SDS011;53568;52.164;4.472;2022-11-14T02:25:03;26.37;;;26.34;;
66669;SDS011;53568;52.164;4.472;2022-11-14T02:27:30;26.57;;;26.49;;
66669;SDS011;53568;52.164;4.472;2022-11-14T02:30:02;27.42;;;27.33;;
66669;SDS011;53568;52.164;4.472;2022-11-14T02:32:30;27.74;;;27.23;;
66669;SDS011;53568;52.164;4.472;2022-11-14T02:34:56;27.52;;;27.22;;
66669;SDS011;53568;52.164;4.472;2022-11-14T02:37:22;27.94;;;27.76;;
66669;SDS011;53568;52.164;4.472;2022-11-14T02:39:47;28.99;;;28.78;;
66669;SDS011;53568;52.164;4.472;2022-11-14T02:42:13;28.85;;;28.58;;
66669;SDS011;53568;52.164;4.472;2022-11-14T02:44:38;29.28;;;28.91;;
66669;SDS011;53568;52.164;4.472;2022-11-14T02:47:04;29.84;;;29.37;;
66669;SDS011;53568;52.164;4.472;2022-11-14T02:49:29;29.73;;;29.31;;
66669;SDS011;53568;52.164;4.472;2022-11-14T02:51:55;29.41;;;29.12;;
66669;SDS011;53568;52.164;4.472;2022-11-14T02:54:20;30.20;;;29.75;;
66669;SDS011;53568;52.164;4.472;2022-11-14T02:56:46;29.96;;;29.68;;
66669;SDS011;53568;52.164;4.472;2022-11-14T02:59:11;31.09;;;30.69;;
66669;SDS011;53568;52.164;4.472;2022-11-14T03:01:37;30.98;;;30.51;;
66669;SDS011;53568;52.164;4.472;2022-11-14T03:04:02;31.62;;;30.97;;
66669;SDS011;53568;52.164;4.472;2022-11-14T03:06:28;31.85;;;31.33;;
66669;SDS011;53568;52.164;4.472;2022-11-14T03:08:54;30.98;;;30.65;;
66669;SDS011;53568;52.164;4.472;2022-11-14T03:11:19;31.51;;;30.92;;
66669;SDS011;53568;52.164;4.472;2022-11-14T03:13:45;32.85;;;32.13;;
66669;SDS011;53568;52.164;4.472;2022-11-14T03:16:11;31.81;;;31.30;;
66669;SDS011;53568;52.164;4.472;2022-11-14T03:18:38;32.52;;;31.88;;
66669;SDS011;53568;52.164;4.472;2022-11-14T03:21:14;32.84;;;32.46;;
66669;SDS011;53568;52.164;4.472;2022-11-14T03:23:42;33.73;;;33.22;;
66669;SDS011;53568;52.164;4.472;2022-11-14T03:26:08;33.94;;;33.26;;
66669;SDS011;53568;52.164;4.472;2022-11-14T03:28:36;33.53;;;33.05;;
66669;SDS011;53568;52.164;4.472;2022-11-14T03:31:04;33.99;;;33.19;;
66669;SDS011;53568;52.164;4.472;2022-11-14T03:33:31;33.88;;;33.14;;
66669;SDS011;53568;52.164;4.472;2022-11-14T03:35:57;35.17;;;34.52;;
66669;SDS011;53568;52.164;4.472;2022-11-14T03:38:22;34.43;;;34.02;;
66669;SDS011;53568;52.164;4.472;2022-11-14T03:40:48;34.82;;;34.32;;
66669;SDS011;53568;52.164;4.472;2022-11-14T03:43:15;35.10;;;34.59;;
66669;SDS011;53568;52.164;4.472;2022-11-14T03:45:42;35.48;;;34.99;;
66669;SDS011;53568;52.164;4.472;2022-11-14T03:48:08;35.71;;;35.00;;
66669;SDS011;53568;52.164;4.472;2022-11-14T03:50:33;35.00;;;34.55;;
66669;SDS011;53568;52.164;4.472;2022-11-14T03:52:59;35.91;;;35.37;;
66669;SDS011;53568;52.164;4.472;2022-11-14T03:55:24;35.88;;;34.84;;
66669;SDS011;53568;52.164;4.472;2022-11-14T03:57:50;36.30;;;35.46;;
66669;SDS011;53568;52.164;4.472;2022-11-14T04:00:16;35.41;;;34.66;;
66669;SDS011;53568;52.164;4.472;2022-11-14T04:02:42;37.65;;;36.79;;
66669;SDS011;53568;52.164;4.472;2022-11-14T04:05:08;37.33;;;36.63;;
66669;SDS011;53568;52.164;4.472;2022-11-14T04:07:33;38.26;;;37.36;;
66669;SDS011;53568;52.164;4.472;2022-11-14T04:09:59;39.41;;;38.34;;
66669;SDS011;53568;52.164;4.472;2022-11-14T04:12:24;39.18;;;38.03;;
66669;SDS011;53568;52.164;4.472;2022-11-14T04:14:50;40.37;;;39.27;;
66669;SDS011;53568;52.164;4.472;2022-11-14T04:17:16;40.41;;;39.59;;
66669;SDS011;53568;52.164;4.472;2022-11-14T04:19:41;41.26;;;40.03;;
66669;SDS011;53568;52.164;4.472;2022-11-14T04:22:06;41.18;;;40.13;;
66669;SDS011;53568;52.164;4.472;2022-11-14T04:24:32;41.11;;;40.03;;
66669;SDS011;53568;52.164;4.472;2022-11-14T04:27:00;40.92;;;39.84;;
66669;SDS011;53568;52.164;4.472;2022-11-14T04:29:25;41.24;;;40.37;;
66669;SDS011;53568;52.164;4.472;2022-11-14T04:31:51;42.23;;;40.84;;
66669;SDS011;53568;52.164;4.472;2022-11-14T04:34:16;41.64;;;40.61;;
66669;SDS011;53568;52.164;4.472;2022-11-14T04:36:42;41.81;;;40.73;;
66669;SDS011;53568;52.164;4.472;2022-11-14T04:39:08;42.99;;;41.68;;
66669;SDS011;53568;52.164;4.472;2022-11-14T04:41:33;43.00;;;41.63;;
66669;SDS011;53568;52.164;4.472;2022-11-14T04:43:59;41.37;;;40.57;;
66669;SDS011;53568;52.164;4.472;2022-11-14T04:46:24;42.56;;;41.48;;
66669;SDS011;53568;52.164;4.472;2022-11-14T04:48:50;42.85;;;41.72;;
66669;SDS011;53568;52.164;4.472;2022-11-14T04:51:15;43.10;;;41.85;;
66669;SDS011;53568;52.164;4.472;2022-11-14T04:53:41;43.45;;;42.28;;
66669;SDS011;53568;52.164;4.472;2022-11-14T04:56:06;43.20;;;41.76;;
66669;SDS011;53568;52.164;4.472;2022-11-14T04:58:32;43.41;;;42.04;;
66669;SDS011;53568;52.164;4.472;2022-11-14T05:00:58;43.27;;;41.94;;
66669;SDS011;53568;52.164;4.472;2022-11-14T05:03:26;42.93;;;41.47;;
66669;SDS011;53568;52.164;4.472;2022-11-14T05:05:51;43.08;;;41.31;;
66669;SDS011;53568;52.164;4.472;2022-11-14T05:08:17;43.18;;;41.82;;
66669;SDS011;53568;52.164;4.472;2022-11-14T05:10:42;43.97;;;42.47;;
66669;SDS011;53568;52.164;4.472;2022-11-14T05:13:09;42.95;;;41.78;;
66669;SDS011;53568;52.164;4.472;2022-11-14T05:15:35;43.44;;;41.71;;
66669;SDS011;53568;52.164;4.472;2022-11-14T05:18:00;43.81;;;42.32;;
66669;SDS011;53568;52.164;4.472;2022-11-14T05:20:26;42.96;;;41.72;;
66669;SDS011;53568;52.164;4.472;2022-11-14T05:22:53;43.48;;;42.12;;
66669;SDS011;53568;52.164;4.472;2022-11-14T05:25:20;43.68;;;42.20;;
66669;SDS011;53568;52.164;4.472;2022-11-14T05:27:46;44.37;;;42.68;;
66669;SDS011;53568;52.164;4.472;2022-11-14T05:30:12;42.66;;;41.46;;
66669;SDS011;53568;52.164;4.472;2022-11-14T05:32:37;43.89;;;42.63;;
66669;SDS011;53568;52.164;4.472;2022-11-14T05:35:03;43.63;;;42.02;;
66669;SDS011;53568;52.164;4.472;2022-11-14T05:37:29;43.45;;;41.93;;
66669;SDS011;53568;52.164;4.472;2022-11-14T05:39:54;42.73;;;41.31;;
66669;SDS011;53568;52.164;4.472;2022-11-14T05:42:20;43.84;;;42.32;;
66669;SDS011;53568;52.164;4.472;2022-11-14T05:44:46;43.06;;;41.57;;
66669;SDS011;53568;52.164;4.472;2022-11-14T05:47:11;42.67;;;41.28;;
66669;SDS011;53568;52.164;4.472;2022-11-14T05:49:37;42.95;;;41.35;;
66669;SDS011;53568;52.164;4.472;2022-11-14T05:52:02;41.91;;;40.76;;
66669;SDS011;53568;52.164;4.472;2022-11-14T05:54:28;42.74;;;41.17;;
66669;SDS011;53568;52.164;4.472;2022-11-14T05:56:53;42.31;;;40.76;;
66669;SDS011;53568;52.164;4.472;2022-11-14T05:59:19;42.62;;;41.08;;
66669;SDS011;53568;52.164;4.472;2022-11-14T06:01:44;42.25;;;40.67;;
66669;SDS011;53568;52.164;4.472;2022-11-14T06:04:11;41.68;;;39.97;;
66669;SDS011;53568;52.164;4.472;2022-11-14T06:06:38;41.92;;;40.53;;
66669;SDS011;53568;52.164;4.472;2022-11-14T06:09:03;42.26;;;40.70;;
66669;SDS011;53568;52.164;4.472;2022-11-14T06:11:29;41.40;;;39.86;;
66669;SDS011;53568;52.164;4.472;2022-11-14T06:13:54;42.13;;;40.14;;
66669;SDS011;53568;52.164;4.472;2022-11-14T06:16:20;41.65;;;40.24;;
66669;SDS011;53568;52.164;4.472;2022-11-14T06:18:45;42.03;;;40.46;;
66669;SDS011;53568;52.164;4.472;2022-11-14T06:21:15;41.90;;;40.21;;
66669;SDS011;53568;52.164;4.472;2022-11-14T06:23:43;41.32;;;39.95;;
66669;SDS011;53568;52.164;4.472;2022-11-14T06:26:30;40.90;;;39.67;;
66669;SDS011;53568;52.164;4.472;2022-11-14T06:28:56;42.04;;;40.56;;
66669;SDS011;53568;52.164;4.472;2022-11-14T06:31:23;42.14;;;40.51;;
66669;SDS011;53568;52.164;4.472;2022-11-14T06:33:49;42.83;;;41.00;;
66669;SDS011;53568;52.164;4.472;2022-11-14T06:36:15;41.20;;;39.66;;
66669;SDS011;53568;52.164;4.472;2022-11-14T06:38:41;41.67;;;40.20;;
66669;SDS011;53568;52.164;4.472;2022-11-14T06:41:11;41.67;;;40.32;;
66669;SDS011;53568;52.164;4.472;2022-11-14T06:43:42;41.90;;;40.40;;
66669;SDS011;53568;52.164;4.472;2022-11-14T06:46:11;40.93;;;39.37;;
66669;SDS011;53568;52.164;4.472;2022-11-14T06:48:41;40.50;;;39.04;;
66669;SDS011;53568;52.164;4.472;2022-11-14T06:51:08;40.76;;;39.24;;
66669;SDS011;53568;52.164;4.472;2022-11-14T06:53:35;40.66;;;38.95;;
66669;SDS011;53568;52.164;4.472;2022-11-14T06:56:05;40.77;;;39.07;;
66669;SDS011;53568;52.164;4.472;2022-11-14T06:58:34;39.39;;;38.01;;
66669;SDS011;53568;52.164;4.472;2022-11-14T07:01:05;38.92;;;37.46;;
66669;SDS011;53568;52.164;4.472;2022-11-14T07:03:38;38.57;;;37.17;;
66669;SDS011;53568;52.164;4.472;2022-11-14T07:06:04;40.28;;;38.85;;
66669;SDS011;53568;52.164;4.472;2022-11-14T07:08:30;40.03;;;38.49;;
66669;SDS011;53568;52.164;4.472;2022-11-14T07:11:04;39.79;;;38.17;;
66669;SDS011;53568;52.164;4.472;2022-11-14T07:13:34;39.17;;;37.84;;
66669;SDS011;53568;52.164;4.472;2022-11-14T07:16:00;40.20;;;38.60;;
66669;SDS011;53568;52.164;4.472;2022-11-14T07:18:28;40.17;;;38.66;;
66669;SDS011;53568;52.164;4.472;2022-11-14T07:21:01;39.26;;;37.92;;
66669;SDS011;53568;52.164;4.472;2022-11-14T07:23:30;38.92;;;37.60;;
66669;SDS011;53568;52.164;4.472;2022-11-14T07:26:01;38.72;;;36.91;;
66669;SDS011;53568;52.164;4.472;2022-11-14T07:28:35;38.38;;;36.79;;
66669;SDS011;53568;52.164;4.472;2022-11-14T07:31:03;38.48;;;37.39;;
66669;SDS011;53568;52.164;4.472;2022-11-14T07:33:30;37.99;;;36.92;;
66669;SDS011;53568;52.164;4.472;2022-11-14T07:35:56;37.56;;;36.41;;
66669;SDS011;53568;52.164;4.472;2022-11-14T07:38:22;37.71;;;36.13;;
66669;SDS011;53568;52.164;4.472;2022-11-14T07:40:52;36.54;;;35.37;;
66669;SDS011;53568;52.164;4.472;2022-11-14T07:43:27;37.08;;;35.78;;
66669;SDS011;53568;52.164;4.472;2022-11-14T07:46:00;37.26;;;36.21;;
66669;SDS011;53568;52.164;4.472;2022-11-14T07:48:34;36.84;;;35.58;;
66669;SDS011;53568;52.164;4.472;2022-11-14T07:51:00;35.78;;;34.79;;
66669;SDS011;53568;52.164;4.472;2022-11-14T07:53:28;35.96;;;34.99;;
66669;SDS011;53568;52.164;4.472;2022-11-14T07:55:54;36.44;;;35.17;;
66669;SDS011;53568;52.164;4.472;2022-11-14T07:58:20;35.39;;;34.53;;
66669;SDS011;53568;52.164;4.472;2022-11-14T08:00:46;36.35;;;34.92;;
66669;SDS011;53568;52.164;4.472;2022-11-14T08:03:11;35.87;;;34.55;;
66669;SDS011;53568;52.164;4.472;2022-11-14T08:05:37;35.59;;;34.23;;
66669;SDS011;53568;52.164;4.472;2022-11-14T08:08:03;36.44;;;35.06;;
66669;SDS011;53568;52.164;4.472;2022-11-14T08:10:29;34.31;;;33.36;;
66669;SDS011;53568;52.164;4.472;2022-11-14T08:12:58;34.73;;;33.71;;
66669;SDS011;53568;52.164;4.472;2022-11-14T08:15:26;34.86;;;33.87;;
66669;SDS011;53568;52.164;4.472;2022-11-14T08:17:55;34.26;;;33.46;;
66669;SDS011;53568;52.164;4.472;2022-11-14T08:20:22;34.36;;;33.44;;
66669;SDS011;53568;52.164;4.472;2022-11-14T08:22:48;34.86;;;33.73;;
66669;SDS011;53568;52.164;4.472;2022-11-14T08:25:13;35.43;;;34.41;;
66669;SDS011;53568;52.164;4.472;2022-11-14T08:27:39;34.54;;;33.54;;
66669;SDS011;53568;52.164;4.472;2022-11-14T08:30:05;35.42;;;34.36;;
66669;SDS011;53568;52.164;4.472;2022-11-14T08:32:31;35.19;;;34.43;;
66669;SDS011;53568;52.164;4.472;2022-11-14T08:34:56;35.21;;;34.15;;
66669;SDS011;53568;52.164;4.472;2022-11-14T08:37:22;34.07;;;33.45;;
66669;SDS011;53568;52.164;4.472;2022-11-14T08:39:47;33.82;;;33.04;;
66669;SDS011;53568;52.164;4.472;2022-11-14T08:42:13;33.33;;;32.48;;
66669;SDS011;53568;52.164;4.472;2022-11-14T08:44:38;34.28;;;33.15;;
66669;SDS011;53568;52.164;4.472;2022-11-14T08:47:03;33.82;;;32.87;;
66669;SDS011;53568;52.164;4.472;2022-11-14T08:49:29;33.50;;;32.64;;
66669;SDS011;53568;52.164;4.472;2022-11-14T08:51:55;33.01;;;32.04;;
66669;SDS011;53568;52.164;4.472;2022-11-14T08:54:20;33.02;;;32.27;;
66669;SDS011;53568;52.164;4.472;2022-11-14T08:56:46;32.59;;;31.81;;
66669;SDS011;53568;52.164;4.472;2022-11-14T08:59:11;31.70;;;30.94;;
66669;SDS011;53568;52.164;4.472;2022-11-14T09:01:37;32.38;;;31.39;;
66669;SDS011;53568;52.164;4.472;2022-11-14T09:04:02;32.40;;;31.55;;
66669;SDS011;53568;52.164;4.472;2022-11-14T09:06:29;32.19;;;31.41;;
66669;SDS011;53568;52.164;4.472;2022-11-14T09:08:54;30.55;;;29.90;;
66669;SDS011;53568;52.164;4.472;2022-11-14T09:11:20;31.58;;;30.77;;
66669;SDS011;53568;52.164;4.472;2022-11-14T09:13:46;31.07;;;30.25;;
66669;SDS011;53568;52.164;4.472;2022-11-14T09:16:11;31.35;;;30.77;;
66669;SDS011;53568;52.164;4.472;2022-11-14T09:18:37;30.36;;;29.91;;
66669;SDS011;53568;52.164;4.472;2022-11-14T09:21:03;29.89;;;29.39;;
66669;SDS011;53568;52.164;4.472;2022-11-14T09:23:31;29.78;;;29.18;;
66669;SDS011;53568;52.164;4.472;2022-11-14T09:25:57;29.07;;;28.49;;
66669;SDS011;53568;52.164;4.472;2022-11-14T09:28:23;28.81;;;28.24;;
66669;SDS011;53568;52.164;4.472;2022-11-14T09:30:48;27.86;;;27.30;;
66669;SDS011;53568;52.164;4.472;2022-11-14T09:33:14;28.99;;;28.45;;
66669;SDS011;53568;52.164;4.472;2022-11-14T09:35:40;28.26;;;27.80;;
66669;SDS011;53568;52.164;4.472;2022-11-14T09:38:06;28.41;;;27.96;;
66669;SDS011;53568;52.164;4.472;2022-11-14T09:46:03;29.11;;;28.44;;
66669;SDS011;53568;52.164;4.472;2022-11-14T09:48:46;28.33;;;27.83;;
66669;SDS011;53568;52.164;4.472;2022-11-14T09:51:18;28.69;;;28.06;;
66669;SDS011;53568;52.164;4.472;2022-11-14T09:56:27;29.05;;;28.58;;
66669;SDS011;53568;52.164;4.472;2022-11-14T09:58:53;28.17;;;27.76;;
66669;SDS011;53568;52.164;4.472;2022-11-14T10:11:58;28.48;;;27.93;;
66669;SDS011;53568;52.164;4.472;2022-11-14T10:17:08;28.60;;;28.02;;
66669;SDS011;53568;52.164;4.472;2022-11-14T10:19:57;28.51;;;28.07;;
66669;SDS011;53568;52.164;4.472;2022-11-14T10:27:55;28.27;;;27.74;;
66669;SDS011;53568;52.164;4.472;2022-11-14T10:30:31;26.72;;;26.52;;
66669;SDS011;53568;52.164;4.472;2022-11-14T10:35:46;27.26;;;26.93;;
66669;SDS011;53568;52.164;4.472;2022-11-14T10:38:23;26.66;;;26.53;;
66669;SDS011;53568;52.164;4.472;2022-11-14T10:40:58;26.42;;;26.19;;
66669;SDS011;53568;52.164;4.472;2022-11-14T10:46:10;27.05;;;26.60;;
66669;SDS011;53568;52.164;4.472;2022-11-14T10:48:45;27.21;;;26.83;;
66669;SDS011;53568;52.164;4.472;2022-11-14T10:54:05;26.26;;;26.08;;
66669;SDS011;53568;52.164;4.472;2022-11-14T10:59:12;26.38;;;26.03;;
66669;SDS011;53568;52.164;4.472;2022-11-14T11:01:42;25.59;;;25.19;;
66669;SDS011;53568;52.164;4.472;2022-11-14T11:06:53;24.69;;;24.52;;
66669;SDS011;53568;52.164;4.472;2022-11-14T11:10:00;24.38;;;24.17;;
66669;SDS011;53568;52.164;4.472;2022-11-14T11:12:45;24.98;;;24.64;;
66669;SDS011;53568;52.164;4.472;2022-11-14T11:15:17;25.43;;;25.01;;
66669;SDS011;53568;52.164;4.472;2022-11-14T11:25:33;23.66;;;23.45;;
66669;SDS011;53568;52.164;4.472;2022-11-14T11:30:31;23.51;;;23.48;;
66669;SDS011;53568;52.164;4.472;2022-11-14T11:33:13;23.84;;;23.57;;
66669;SDS011;53568;52.164;4.472;2022-11-14T11:35:40;24.11;;;24.04;;
66669;SDS011;53568;52.164;4.472;2022-11-14T11:38:10;24.46;;;24.28;;
66669;SDS011;53568;52.164;4.472;2022-11-14T11:40:36;25.13;;;24.99;;
66669;SDS011;53568;52.164;4.472;2022-11-14T11:43:09;24.43;;;24.36;;
66669;SDS011;53568;52.164;4.472;2022-11-14T11:45:39;23.99;;;23.96;;
66669;SDS011;53568;52.164;4.472;2022-11-14T11:48:15;23.34;;;23.25;;
66669;SDS011;53568;52.164;4.472;2022-11-14T11:50:43;24.39;;;24.21;;
66669;SDS011;53568;52.164;4.472;2022-11-14T11:53:21;23.73;;;23.66;;
66669;SDS011;53568;52.164;4.472;2022-11-14T11:55:58;23.79;;;23.78;;
66669;SDS011;53568;52.164;4.472;2022-11-14T11:58:40;23.56;;;23.55;;
66669;SDS011;53568;52.164;4.472;2022-11-14T12:01:44;23.35;;;23.34;;
66669;SDS011;53568;52.164;4.472;2022-11-14T12:04:10;23.21;;;23.21;;
66669;SDS011;53568;52.164;4.472;2022-11-14T12:06:44;23.66;;;23.59;;
66669;SDS011;53568;52.164;4.472;2022-11-14T12:09:28;23.71;;;23.70;;
66669;SDS011;53568;52.164;4.472;2022-11-14T12:12:02;23.47;;;23.46;;
66669;SDS011;53568;52.164;4.472;2022-11-14T12:14:56;23.77;;;23.76;;
66669;SDS011;53568;52.164;4.472;2022-11-14T12:20:26;24.17;;;24.05;;
66669;SDS011;53568;52.164;4.472;2022-11-14T12:26:46;23.75;;;23.63;;
66669;SDS011;53568;52.164;4.472;2022-11-14T12:29:26;23.85;;;23.75;;
66669;SDS011;53568;52.164;4.472;2022-11-14T12:32:03;23.50;;;23.48;;
66669;SDS011;53568;52.164;4.472;2022-11-14T12:34:38;23.68;;;23.61;;
66669;SDS011;53568;52.164;4.472;2022-11-14T12:37:12;24.05;;;23.86;;
66669;SDS011;53568;52.164;4.472;2022-11-14T12:39:58;23.32;;;23.25;;
66669;SDS011;53568;52.164;4.472;2022-11-14T12:42:27;23.84;;;23.83;;
66669;SDS011;53568;52.164;4.472;2022-11-14T12:44:53;24.91;;;24.62;;
66669;SDS011;53568;52.164;4.472;2022-11-14T12:47:19;24.59;;;24.47;;
66669;SDS011;53568;52.164;4.472;2022-11-14T12:57:55;27.29;;;27.23;;
66669;SDS011;53568;52.164;4.472;2022-11-14T13:11:58;27.49;;;27.40;;
66669;SDS011;53568;52.164;4.472;2022-11-14T13:18:12;27.84;;;27.77;;
66669;SDS011;53568;52.164;4.472;2022-11-14T13:21:01;28.52;;;28.32;;
66669;SDS011;53568;52.164;4.472;2022-11-14T13:28:48;27.88;;;27.67;;
66669;SDS011;53568;52.164;4.472;2022-11-14T13:33:47;28.43;;;28.26;;
66669;SDS011;53568;52.164;4.472;2022-11-14T13:44:50;27.83;;;27.77;;
66669;SDS011;53568;52.164;4.472;2022-11-14T13:47:34;28.63;;;28.47;;
66669;SDS011;53568;52.164;4.472;2022-11-14T13:50:30;29.00;;;28.79;;
66669;SDS011;53568;52.164;4.472;2022-11-14T13:53:01;27.21;;;27.20;;
66669;SDS011;53568;52.164;4.472;2022-11-14T13:58:41;25.92;;;25.89;;
66669;SDS011;53568;52.164;4.472;2022-11-14T14:12:52;23.18;;;23.18;;
66669;SDS011;53568;52.164;4.472;2022-11-14T14:15:36;23.10;;;23.10;;
66669;SDS011;53568;52.164;4.472;2022-11-14T14:26:25;22.73;;;22.67;;
66669;SDS011;53568;52.164;4.472;2022-11-14T14:31:41;22.86;;;22.86;;
66669;SDS011;53568;52.164;4.472;2022-11-14T14:36:53;22.19;;;22.19;;
66669;SDS011;53568;52.164;4.472;2022-11-14T14:39:24;22.43;;;22.28;;
66669;SDS011;53568;52.164;4.472;2022-11-14T14:41:51;22.37;;;22.01;;
66669;SDS011;53568;52.164;4.472;2022-11-14T14:44:30;22.40;;;22.35;;
66669;SDS011;53568;52.164;4.472;2022-11-14T14:47:15;22.53;;;22.53;;
66669;SDS011;53568;52.164;4.472;2022-11-14T14:49:49;22.46;;;22.45;;
66669;SDS011;53568;52.164;4.472;2022-11-14T14:52:28;23.06;;;23.06;;
66669;SDS011;53568;52.164;4.472;2022-11-14T14:54:58;22.12;;;22.12;;
66669;SDS011;53568;52.164;4.472;2022-11-14T14:57:27;23.45;;;23.45;;
66669;SDS011;53568;52.164;4.472;2022-11-14T14:59:58;23.27;;;23.26;;
66669;SDS011;53568;52.164;4.472;2022-11-14T15:02:25;23.63;;;23.58;;
66669;SDS011;53568;52.164;4.472;2022-11-14T15:04:53;23.59;;;23.58;;
66669;SDS011;53568;52.164;4.472;2022-11-14T15:07:21;24.41;;;24.35;;
66669;SDS011;53568;52.164;4.472;2022-11-14T15:09:50;25.13;;;25.12;;
66669;SDS011;53568;52.164;4.472;2022-11-14T15:12:19;24.93;;;24.92;;
66669;SDS011;53568;52.164;4.472;2022-11-14T15:14:47;24.63;;;24.63;;
66669;SDS011;53568;52.164;4.472;2022-11-14T15:17:14;24.11;;;24.11;;
66669;SDS011;53568;52.164;4.472;2022-11-14T15:19:40;24.67;;;24.54;;
66669;SDS011;53568;52.164;4.472;2022-11-14T15:22:21;24.67;;;24.66;;
66669;SDS011;53568;52.164;4.472;2022-11-14T15:25:04;24.98;;;24.93;;
66669;SDS011;53568;52.164;4.472;2022-11-14T15:27:31;24.70;;;24.60;;
66669;SDS011;53568;52.164;4.472;2022-11-14T15:29:59;24.64;;;24.59;;
66669;SDS011;53568;52.164;4.472;2022-11-14T15:32:27;24.88;;;24.83;;
66669;SDS011;53568;52.164;4.472;2022-11-14T15:35:06;24.98;;;24.98;;
66669;SDS011;53568;52.164;4.472;2022-11-14T15:37:58;24.92;;;24.92;;
66669;SDS011;53568;52.164;4.472;2022-11-14T15:40:28;25.16;;;25.12;;
66669;SDS011;53568;52.164;4.472;2022-11-14T15:42:55;34.83;;;34.02;;
66669;SDS011;53568;52.164;4.472;2022-11-14T15:45:21;37.41;;;37.11;;
66669;SDS011;53568;52.164;4.472;2022-11-14T15:47:56;39.31;;;38.51;;
66669;SDS011;53568;52.164;4.472;2022-11-14T15:50:27;43.99;;;42.78;;
66669;SDS011;53568;52.164;4.472;2022-11-14T15:55:29;46.45;;;45.59;;
66669;SDS011;53568;52.164;4.472;2022-11-14T15:57:54;48.51;;;47.27;;
66669;SDS011;53568;52.164;4.472;2022-11-14T16:00:21;50.74;;;49.27;;
66669;SDS011;53568;52.164;4.472;2022-11-14T16:02:47;54.97;;;53.20;;
66669;SDS011;53568;52.164;4.472;2022-11-14T16:05:25;57.46;;;55.53;;
66669;SDS011;53568;52.164;4.472;2022-11-14T16:07:53;58.85;;;56.92;;
66669;SDS011;53568;52.164;4.472;2022-11-14T16:10:20;60.86;;;58.73;;
66669;SDS011;53568;52.164;4.472;2022-11-14T16:12:48;60.35;;;58.44;;
66669;SDS011;53568;52.164;4.472;2022-11-14T16:15:14;60.58;;;58.55;;
66669;SDS011;53568;52.164;4.472;2022-11-14T16:17:41;62.12;;;59.94;;
66669;SDS011;53568;52.164;4.472;2022-11-14T16:20:13;61.78;;;59.44;;
66669;SDS011;53568;52.164;4.472;2022-11-14T16:22:43;61.58;;;59.54;;
66669;SDS011;53568;52.164;4.472;2022-11-14T16:25:16;62.15;;;59.97;;
66669;SDS011;53568;52.164;4.472;2022-11-14T16:27:47;62.53;;;60.10;;
66669;SDS011;53568;52.164;4.472;2022-11-14T16:30:13;61.83;;;59.80;;
66669;SDS011;53568;52.164;4.472;2022-11-14T16:32:41;61.97;;;59.56;;
66669;SDS011;53568;52.164;4.472;2022-11-14T16:35:12;60.91;;;58.81;;
66669;SDS011;53568;52.164;4.472;2022-11-14T16:37:46;61.54;;;58.79;;
66669;SDS011;53568;52.164;4.472;2022-11-14T16:40:13;59.34;;;57.33;;